Terminal Aerodrome Forecast
Issued by NWS Duluth, MN

Home | Current Version | Previous Version | Text Only | Print | Product List | Glossary On
Versions: 1 2 3 4 5 6 7 8 9 10 11 12 13 14 15 16 17 18 19 20 21 22
187
FTUS43 KDLH 201205 AAA
TAFDLH
TAF AMD
KDLH 201205Z 2012/2112 30008KT P6SM SCT011
      TEMPO 2012/2013 BKN011
     FM201600 30010G15KT P6SM SCT030
     FM202300 27005KT P6SM FEW100
     FM210400 VRB03KT P6SM FEW150
      TEMPO 2108/2112 4SM BR SCT005=

USA.gov is the U.S. government's official web portal to all federal, state and local government web resources and services.